Time;durP1;ratioP1;P1;durP2;ratioP2;P2;SDS_P1;SDS_P2;PMS_P1;PMS_P2;Temp;Humidity;BMP_temperature;BMP_pressure;BME280_temperature;BME280_humidity;BME280_pressure;Samples;Min_cycle;Max_cycle;Signal;HPM_P1;HPM_P2
2021/12/11 00:00:12;;;;;;;;;;;;;;;21.58;21.02;93503.69;5042490;28;19917;-66
2021/12/11 00:02:39;;;;;;;;;;;;;;;19.30;24.06;93507.28;5036846;28;19920;-66
2021/12/11 00:05:06;;;;;;;;;;;;;;;18.68;25.01;93509.50;5035908;28;20243;-68
2021/12/11 00:07:34;;;;;;;;;;;;;;;18.79;24.71;93505.13;5045712;28;19913;-67
2021/12/11 00:10:06;;;;;;;;;;;;;;;18.54;24.88;93519.84;5056632;28;19920;-66
2021/12/11 00:12:35;;;;;;;;;;;;;;;19.06;24.36;93529.69;5056304;28;19913;-67
2021/12/11 00:15:10;;;;;;;;;;;;;;;18.77;24.71;93539.13;5056654;28;19927;-68
2021/12/11 00:17:37;;;;;;;;;;;;;;;19.44;23.44;93541.13;5056012;28;19923;-67
2021/12/11 00:20:05;;;;;;;;;;;;;;;18.92;24.73;93551.44;5056213;28;19917;-65
2021/12/11 00:22:32;;;;;;;;;;;;;;;19.33;23.94;93544.41;5045026;28;20304;-65
2021/12/11 00:25:06;;;;;;;;;;;;;;;18.49;25.17;93540.22;5036531;28;20343;-67
2021/12/11 00:27:33;;;;;;;;;;;;;;;20.09;23.16;93538.03;5040995;28;19916;-64
2021/12/11 00:30:01;;;;;;;;;;;;;;;22.38;20.59;93546.78;5034213;28;19946;-66
2021/12/11 00:32:30;;;;;;;;;;;;;;;22.45;20.15;93538.84;5036611;28;20227;-66
2021/12/11 00:34:58;;;;;;;;;;;;;;;20.43;22.34;93544.03;5035620;28;19917;-67
2021/12/11 00:37:26;;;;;;;;;;;;;;;19.18;24.56;93547.22;5039598;28;19923;-67
2021/12/11 00:39:58;;;;;;;;;;;;;;;21.16;21.73;93544.91;5056076;28;19916;-67
2021/12/11 00:42:34;;;;;;;;;;;;;;;19.78;23.35;93531.28;5047930;28;19923;-67
2021/12/11 00:45:09;;;;;;;;;;;;;;;19.61;23.61;93533.41;5048710;28;19925;-67
2021/12/11 00:47:40;;;;;;;;;;;;;;;20.85;22.08;93539.03;5039726;28;19919;-65
2021/12/11 00:50:09;;;;;;;;;;;;;;;19.49;23.73;93520.34;5040770;28;19921;-67
2021/12/11 00:52:40;;;;;;;;;;;;;;;20.40;22.31;93507.59;5056129;28;19923;-67
2021/12/11 00:55:15;;;;;;;;;;;;;;;18.26;25.25;93520.94;5046911;28;19913;-68
2021/12/11 00:57:43;;;;;;;;;;;;;;;19.87;23.38;93518.50;5040765;28;19921;-67
2021/12/11 01:00:11;;;;;;;;;;;;;;;20.08;23.14;93528.56;5055948;28;19919;-67
2021/12/11 01:02:38;;;;;;;;;;;;;;;19.88;23.19;93526.09;5039220;28;19920;-66
2021/12/11 01:05:06;;;;;;;;;;;;;;;17.86;26.00;93526.69;5035795;28;19924;-67
2021/12/11 01:07:33;;;;;;;;;;;;;;;19.78;23.66;93536.59;5039269;28;19913;-66
2021/12/11 01:10:23;;;;;;;;;;;;;;;19.83;23.29;93521.13;5044998;28;19924;-67
2021/12/11 01:12:56;;;;;;;;;;;;;;;19.17;24.09;93522.63;5052399;28;19927;-67
2021/12/11 01:15:26;;;;;;;;;;;;;;;19.10;24.32;93512.72;5055608;28;20284;-66
2021/12/11 01:18:21;;;;;;;;;;;;;;;18.25;25.75;93518.66;5054459;28;19919;-67
2021/12/11 01:21:01;;;;;;;;;;;;;;;19.64;23.94;93506.16;5055116;28;20236;-67
2021/12/11 01:23:55;;;;;;;;;;;;;;;19.42;23.97;93523.69;5035538;28;19913;-64
2021/12/11 01:26:21;;;;;;;;;;;;;;;15.45;29.77;93533.38;5040740;28;19931;-60
2021/12/11 01:28:49;;;;;;;;;;;;;;;14.46;31.75;93520.81;5040436;28;19913;-60
2021/12/11 01:31:18;;;;;;;;;;;;;;;15.14;30.88;93520.91;5035419;28;19917;-64
2021/12/11 01:33:45;;;;;;;;;;;;;;;16.26;28.83;93515.47;5035197;28;19917;-64
2021/12/11 01:36:11;;;;;;;;;;;;;;;17.92;26.31;93527.16;5035527;28;19921;-68
2021/12/11 01:38:39;;;;;;;;;;;;;;;17.78;26.26;93515.25;5048602;28;19913;-67
2021/12/11 01:41:07;;;;;;;;;;;;;;;16.98;27.53;93513.31;5037438;28;19920;-66
2021/12/11 01:43:35;;;;;;;;;;;;;;;16.19;28.99;93515.31;5055182;28;19921;-66
2021/12/11 01:46:03;;;;;;;;;;;;;;;16.58;28.44;93501.13;5055135;28;19921;-64
2021/12/11 01:48:31;;;;;;;;;;;;;;;16.89;27.70;93507.44;5054872;28;19913;-66
2021/12/11 01:51:01;;;;;;;;;;;;;;;18.08;26.14;93507.44;5054707;28;19912;-68
2021/12/11 01:53:31;;;;;;;;;;;;;;;17.98;25.80;93499.34;5034260;28;20292;-66
2021/12/11 01:56:03;;;;;;;;;;;;;;;15.59;29.77;93506.66;5035331;28;19912;-67
2021/12/11 01:58:35;;;;;;;;;;;;;;;14.92;31.21;93497.72;5043772;28;19920;-65
2021/12/11 02:01:13;;;;;;;;;;;;;;;15.35;30.62;93503.03;5035500;28;19917;-64
2021/12/11 02:03:40;;;;;;;;;;;;;;;16.40;29.04;93502.63;5035218;28;19925;-66
2021/12/11 02:06:07;;;;;;;;;;;;;;;16.53;28.77;93482.94;5035451;28;19928;-67
2021/12/11 02:08:35;;;;;;;;;;;;;;;15.81;29.79;93485.03;5053349;28;19913;-66
2021/12/11 02:11:11;;;;;;;;;;;;;;;15.82;29.60;93485.78;5054910;28;19917;-68
2021/12/11 02:13:45;;;;;;;;;;;;;;;15.51;30.47;93489.13;5054511;28;19920;-66
2021/12/11 02:16:18;;;;;;;;;;;;;;;15.62;29.90;93496.25;5050541;28;19917;-66
2021/12/11 02:18:46;;;;;;;;;;;;;;;14.71;31.18;93501.25;5036967;28;19919;-67
2021/12/11 02:21:13;;;;;;;;;;;;;;;15.46;30.25;93489.38;5037105;28;20208;-67
2021/12/11 02:23:40;;;;;;;;;;;;;;;17.49;26.58;93492.03;5046291;28;19920;-68
2021/12/11 02:26:12;;;;;;;;;;;;;;;15.83;29.04;93503.91;5038927;28;20386;-67
2021/12/11 02:28:43;;;;;;;;;;;;;;;15.90;29.42;93501.47;5049124;28;19916;-66
2021/12/11 02:31:27;;;;;;;;;;;;;;;17.05;27.01;93502.88;5050271;28;20299;-67
2021/12/11 02:33:55;;;;;;;;;;;;;;;16.92;27.90;93501.50;5038679;28;20331;-67
2021/12/11 02:36:24;;;;;;;;;;;;;;;19.70;23.76;93478.19;5038593;28;19920;-68
2021/12/11 02:38:51;;;;;;;;;;;;;;;17.36;26.95;93480.09;5058237;28;19923;-68
2021/12/11 02:41:38;;;;;;;;;;;;;;;16.89;27.70;93484.47;5045320;28;19921;-69
2021/12/11 02:44:08;;;;;;;;;;;;;;;15.17;30.88;93472.84;5038583;28;19924;-66
2021/12/11 02:46:50;;;;;;;;;;;;;;;14.51;31.91;93478.50;5038053;28;19921;-68
2021/12/11 02:49:47;;;;;;;;;;;;;;;14.58;32.08;93478.72;5058296;28;19912;-67
2021/12/11 02:52:19;;;;;;;;;;;;;;;15.09;30.95;93469.25;5037862;28;19917;-66
2021/12/11 02:55:04;;;;;;;;;;;;;;;14.81;31.50;93468.44;5037482;28;19913;-67
2021/12/11 02:57:36;;;;;;;;;;;;;;;14.95;31.66;93473.34;5045804;28;19924;-70
2021/12/11 03:00:13;;;;;;;;;;;;;;;14.31;32.83;93460.97;5053495;28;19984;-66
2021/12/11 03:02:44;;;;;;;;;;;;;;;15.56;30.81;93470.44;5038127;28;19913;-68
2021/12/11 03:05:14;;;;;;;;;;;;;;;14.88;31.35;93454.75;5041734;28;19917;-69
2021/12/11 03:07:45;;;;;;;;;;;;;;;14.34;32.99;93468.22;5046765;28;19921;-66
2021/12/11 03:10:13;;;;;;;;;;;;;;;15.48;30.58;93464.22;5037561;28;19917;-68
2021/12/11 03:12:40;;;;;;;;;;;;;;;14.73;31.98;93454.34;5065511;28;19916;-68
2021/12/11 03:15:07;;;;;;;;;;;;;;;14.73;32.08;93470.13;5040261;28;19916;-68
2021/12/11 03:17:34;;;;;;;;;;;;;;;14.78;32.41;93462.00;5057398;28;19917;-68
2021/12/11 03:20:02;;;;;;;;;;;;;;;15.39;30.79;93448.59;5057325;28;20332;-66
2021/12/11 03:22:30;;;;;;;;;;;;;;;14.86;31.36;93452.44;5057688;28;20311;-67
2021/12/11 03:24:57;;;;;;;;;;;;;;;14.38;32.32;93458.56;5057596;28;19943;-67
2021/12/11 03:27:24;;;;;;;;;;;;;;;14.98;31.46;93459.53;5057011;28;19920;-65
2021/12/11 03:29:51;;;;;;;;;;;;;;;15.12;31.40;93454.66;5056939;28;19928;-65
2021/12/11 03:32:18;;;;;;;;;;;;;;;15.63;30.49;93441.69;5051811;28;20251;-67
2021/12/11 03:34:45;;;;;;;;;;;;;;;14.66;32.15;93446.25;5036560;28;19916;-67
2021/12/11 03:37:13;;;;;;;;;;;;;;;14.73;32.06;93433.28;5041488;28;19923;-66
2021/12/11 03:39:41;;;;;;;;;;;;;;;14.49;32.78;93422.84;5041370;28;20235;-66
2021/12/11 03:42:13;;;;;;;;;;;;;;;14.92;31.77;93435.31;5048529;28;19920;-67
2021/12/11 03:44:40;;;;;;;;;;;;;;;15.80;30.11;93436.06;5051723;28;19921;-67
2021/12/11 03:47:08;;;;;;;;;;;;;;;14.59;32.46;93427.66;5040197;28;19920;-65
2021/12/11 03:49:36;;;;;;;;;;;;;;;14.69;32.18;93429.03;5056867;28;19921;-68
2021/12/11 03:52:03;;;;;;;;;;;;;;;15.58;30.78;93433.97;5056819;28;19928;-60
2021/12/11 03:54:31;;;;;;;;;;;;;;;15.18;31.10;93434.88;5056222;28;20235;-66
2021/12/11 03:56:59;;;;;;;;;;;;;;;15.52;30.67;93435.34;5056707;28;19920;-64
2021/12/11 03:59:26;;;;;;;;;;;;;;;15.27;30.96;93439.97;5056834;28;19913;-65
2021/12/11 04:01:56;;;;;;;;;;;;;;;15.92;30.33;93448.41;5057006;28;19917;-60
2021/12/11 04:04:28;;;;;;;;;;;;;;;15.69;30.36;93448.22;5026231;28;19913;-64
2021/12/11 04:06:55;;;;;;;;;;;;;;;17.38;28.06;93462.00;5036850;28;19917;-64
2021/12/11 04:09:24;;;;;;;;;;;;;;;16.41;29.86;93469.09;5049923;28;20677;-64
2021/12/11 04:11:51;;;;;;;;;;;;;;;15.28;31.02;93463.34;5056224;28;19916;-66
2021/12/11 04:14:20;;;;;;;;;;;;;;;15.51;31.05;93460.16;5044916;28;20331;-64
2021/12/11 04:16:47;;;;;;;;;;;;;;;15.61;31.29;93457.03;5036773;28;19946;-67
2021/12/11 04:19:14;;;;;;;;;;;;;;;15.78;30.42;93445.41;5047806;28;19942;-67
2021/12/11 04:21:41;;;;;;;;;;;;;;;15.10;31.90;93451.59;5055639;28;19924;-66
2021/12/11 04:24:08;;;;;;;;;;;;;;;15.19;32.12;93446.16;5055679;28;19916;-65
2021/12/11 04:26:36;;;;;;;;;;;;;;;15.08;32.54;93443.25;5036601;28;20319;-66
2021/12/11 04:29:03;;;;;;;;;;;;;;;15.09;32.85;93444.78;5046142;28;19920;-63
2021/12/11 04:31:31;;;;;;;;;;;;;;;15.25;32.50;93436.91;5055273;28;19920;-60
2021/12/11 04:34:00;;;;;;;;;;;;;;;15.05;32.95;93436.03;5056507;28;19913;-68
2021/12/11 04:36:28;;;;;;;;;;;;;;;14.92;33.12;93426.66;5056484;28;19947;-68
2021/12/11 04:38:55;;;;;;;;;;;;;;;14.90;33.03;93420.97;5056240;28;19917;-67
2021/12/11 04:41:27;;;;;;;;;;;;;;;15.30;32.46;93419.00;5055735;28;19921;-67
2021/12/11 04:43:55;;;;;;;;;;;;;;;15.19;32.27;93417.97;5056201;28;19917;-67
2021/12/11 04:46:22;;;;;;;;;;;;;;;14.60;33.44;93423.16;5054817;28;19955;-68
2021/12/11 04:49:02;;;;;;;;;;;;;;;14.82;33.22;93417.34;5056056;28;19939;-68
2021/12/11 05:02:37;;;;;;;;;;;;;;;14.72;33.70;93420.47;5055864;28;19920;-65
2021/12/11 05:05:13;;;;;;;;;;;;;;;14.67;34.13;93418.09;5048528;28;19920;-61
2021/12/11 05:10:20;;;;;;;;;;;;;;;15.10;33.52;93438.44;5054655;28;19917;-67
2021/12/11 05:12:48;;;;;;;;;;;;;;;14.82;34.03;93422.63;5055367;28;20292;-68
2021/12/11 05:15:20;;;;;;;;;;;;;;;18.07;28.87;93429.22;5049295;28;19917;-52
2021/12/11 05:17:47;;;;;;;;;;;;;;;19.60;26.39;93419.78;5045981;28;19924;-53
2021/12/11 05:20:15;;;;;;;;;;;;;;;19.78;26.20;93426.00;5047780;28;20212;-63
2021/12/11 05:22:42;;;;;;;;;;;;;;;19.48;26.70;93428.69;5055482;28;19967;-72
2021/12/11 05:25:09;;;;;;;;;;;;;;;20.11;25.34;93419.81;5055367;28;19913;-66
2021/12/11 05:27:37;;;;;;;;;;;;;;;20.73;24.59;93422.47;5055181;28;19923;-63
2021/12/11 05:30:05;;;;;;;;;;;;;;;19.24;26.44;93429.22;5054481;28;19913;-65
2021/12/11 05:33:53;;;;;;;10.85;8.60;;;;;;;15.31;33.05;93431.06;5068089;28;20421;-69
2021/12/11 05:36:21;;;;;;;11.10;8.88;;;;;;;16.82;30.87;93425.50;5057232;28;20045;-68
2021/12/11 05:38:49;;;;;;;36.63;10.48;;;;;;;21.10;24.19;93432.88;5054968;28;20055;-67
2021/12/11 05:41:19;;;;;;;14.88;8.32;;;;;;;21.96;22.85;93433.84;5048878;28;20049;-69
2021/12/11 05:43:47;;;;;;;7.28;6.10;;;;;;;22.63;21.84;93425.03;5052149;28;20030;-68
2021/12/11 05:46:15;;;;;;;8.43;6.20;;;;;;;22.22;22.53;93424.72;5051993;28;20055;-68
2021/12/11 05:48:45;;;;;;;7.18;6.30;;;;;;;22.70;22.01;93438.34;5051381;28;20056;-68
2021/12/11 05:51:16;;;;;;;8.07;6.55;;;;;;;22.56;22.32;93433.06;5051742;28;20056;-68
2021/12/11 05:53:46;;;;;;;7.20;6.35;;;;;;;21.89;22.74;93439.16;5051709;28;20352;-68
2021/12/11 05:56:14;;;;;;;7.97;6.80;;;;;;;22.06;22.95;93438.41;5063114;28;20053;-69
2021/12/11 06:01:27;;;;;;;7.50;6.30;;;;;;;20.22;25.27;93449.81;5060605;28;20048;-67
2021/12/11 06:03:55;;;;;;;7.25;6.55;;;;;;;19.22;26.75;93442.06;5052535;28;20053;-69
2021/12/11 06:06:22;;;;;;;6.55;5.85;;;;;;;19.10;26.93;93451.03;5054781;28;20052;-68
2021/12/11 06:08:49;;;;;;;6.15;5.55;;;;;;;19.16;26.80;93438.97;5066046;28;20053;-68
2021/12/11 06:11:17;;;;;;;7.10;6.15;;;;;;;19.41;26.82;93457.78;5051354;28;20351;-68
2021/12/11 06:13:45;;;;;;;6.93;5.82;;;;;;;19.47;26.57;93448.38;5050772;28;20057;-67
2021/12/11 06:16:14;;;;;;;7.15;5.90;;;;;;;19.31;26.75;93434.59;5051118;28;20478;-55
2021/12/11 06:18:42;;;;;;;8.70;7.07;;;;;;;18.63;28.05;93443.63;5051175;28;20482;-67
2021/12/11 06:21:09;;;;;;;7.75;6.25;;;;;;;18.70;28.98;93451.66;5062132;28;20049;-48
2021/12/11 06:25:22;;;;;;;13.90;7.50;;;;;;;13.68;36.82;93460.53;5064543;28;20391;-51
2021/12/11 06:27:50;;;;;;;10.98;7.28;;;;;;;13.68;37.45;93452.66;5070728;28;20056;-55
2021/12/11 06:30:18;;;;;;;9.00;7.30;;;;;;;15.88;33.40;93453.59;5052485;28;20052;-49
2021/12/11 06:32:46;;;;;;;8.88;7.15;;;;;;;16.37;32.22;93452.41;5051629;28;20049;-46
2021/12/11 06:35:21;;;;;;;9.77;7.50;;;;;;;16.50;32.02;93438.78;5031734;28;20045;-43
2021/12/11 06:37:48;;;;;;;6.35;5.68;;;;;;;16.12;32.32;93436.78;5051114;28;20057;-43
2021/12/11 06:40:17;;;;;;;7.88;7.00;;;;;;;15.52;34.23;93441.38;5051047;28;20383;-43
2021/12/11 06:42:44;;;;;;;8.20;6.70;;;;;;;15.46;34.10;93447.25;5050917;28;20052;-45
2021/12/11 06:45:11;;;;;;;7.10;6.38;;;;;;;15.34;34.54;93456.72;5051495;28;20448;-43
2021/12/11 06:47:38;;;;;;;8.20;7.38;;;;;;;15.43;34.87;93446.81;5045563;28;20483;-52
2021/12/11 06:50:07;;;;;;;8.32;7.40;;;;;;;15.36;34.88;93448.50;5043825;28;20057;-43
2021/12/11 06:52:34;;;;;;;8.10;7.30;;;;;;;15.41;34.76;93441.13;5042990;28;20045;-43
2021/12/11 06:55:02;;;;;;;7.97;7.07;;;;;;;15.31;34.48;93436.34;5031844;28;20793;-42
2021/12/11 06:57:29;;;;;;;7.82;6.82;;;;;;;15.47;34.03;93428.47;5050713;28;20045;-45
2021/12/11 06:59:57;;;;;;;8.57;6.80;;;;;;;15.24;34.36;93430.13;5045023;28;20453;-44
2021/12/11 07:02:24;;;;;;;9.35;7.15;;;;;;;15.38;34.22;93426.00;5031887;28;20053;-48
2021/12/11 07:04:55;;;;;;;8.52;7.63;;;;;;;15.49;34.37;93441.28;5036907;28;20041;-55
2021/12/11 07:07:32;;;;;;;8.05;6.85;;;;;;;15.24;34.24;93438.78;5050795;28;20460;-46
2021/12/11 07:09:59;;;;;;;6.72;5.97;;;;;;;15.43;34.34;93423.09;5050830;28;20352;-58
2021/12/11 07:17:29;;;;;;;16.48;12.57;;;;;;;15.35;34.19;93426.69;5091909;27;20862;-46
2021/12/11 07:19:56;;;;;;;14.50;10.40;;;;;;;14.90;35.84;93416.47;5091705;28;20048;-51
